AUA55 LOWW-CYUL
Flight info
| Callsign | AUA55 |
|---|---|
| Flight time | N/A |
| Altitude | 34000 |
| Route | MEDIX DCT RENKA L610 STAUB L610 UPALA Z744 LEPSA DCT ADKUV DCT NIK L610 KOPUL Q60 OKSAW DCT BIBPE DCT ARPAK DCT FELCA DCT OFSOX DCT SLANY DCT LUNIG/N0455F360 DCT TOBOR/M079F360 NATC ELSIR/N0448F380 N412A MIILS DCT TIBOS ROCKT3 |
| Aircraft | B763/H-SDE3FGHIM3RWXY/LB1 |
Departure
| Time | 2026-05-06 10:16 |
|---|---|
| Airport | Vienna International Airport (LOWW) |
Arrival
| Time | N/A |
|---|---|
| Airport | Montreal / Pierre Elliott Trudeau International Airport (CYUL) |
| Time | Latitude | Longitude | Altitude | Speed | Heading |
|---|---|---|---|---|---|
| 2026-05-06 09:41 | 48.11807 | 16.55984 | 592 ft | 0 kts | 81° |
| 2026-05-06 10:03 | 48.11807 | 16.55983 | 591 ft | 1 kts | 81° |
| 2026-05-06 10:03 | 48.11804 | 16.55963 | 591 ft | 2 kts | 80° |
| 2026-05-06 10:04 | 48.11802 | 16.55940 | 591 ft | 2 kts | 81° |
| 2026-05-06 10:04 | 48.11799 | 16.55918 | 590 ft | 2 kts | 81° |
| 2026-05-06 10:04 | 48.11797 | 16.55896 | 590 ft | 2 kts | 80° |
| 2026-05-06 10:04 | 48.11794 | 16.55874 | 590 ft | 2 kts | 80° |
| 2026-05-06 10:05 | 48.11792 | 16.55852 | 590 ft | 2 kts | 80° |
| 2026-05-06 10:05 | 48.11789 | 16.55830 | 590 ft | 2 kts | 80° |
| 2026-05-06 10:05 | 48.11787 | 16.55807 | 589 ft | 2 kts | 80° |
| 2026-05-06 10:05 | 48.11786 | 16.55786 | 589 ft | 2 kts | 105° |
| 2026-05-06 10:06 | 48.11789 | 16.55775 | 589 ft | 1 kts | 118° |
| 2026-05-06 10:06 | 48.11791 | 16.55769 | 589 ft | 0 kts | 116° |
| 2026-05-06 10:08 | 48.11790 | 16.55770 | 589 ft | 0 kts | 116° |
| 2026-05-06 10:09 | 48.11779 | 16.55804 | 589 ft | 6 kts | 116° |
| 2026-05-06 10:09 | 48.11756 | 16.55877 | 590 ft | 9 kts | 116° |
| 2026-05-06 10:09 | 48.11723 | 16.55977 | 591 ft | 11 kts | 116° |
| 2026-05-06 10:09 | 48.11685 | 16.56097 | 594 ft | 13 kts | 116° |
| 2026-05-06 10:10 | 48.11641 | 16.56232 | 596 ft | 15 kts | 116° |
| 2026-05-06 10:10 | 48.11589 | 16.56390 | 598 ft | 17 kts | 116° |
| 2026-05-06 10:10 | 48.11532 | 16.56563 | 602 ft | 19 kts | 117° |
| 2026-05-06 10:10 | 48.11471 | 16.56751 | 604 ft | 21 kts | 115° |
| 2026-05-06 10:11 | 48.11403 | 16.56961 | 605 ft | 23 kts | 117° |
| 2026-05-06 10:11 | 48.11335 | 16.57169 | 606 ft | 20 kts | 116° |
| 2026-05-06 10:11 | 48.11301 | 16.57278 | 605 ft | 8 kts | 103° |
| 2026-05-06 10:11 | 48.11328 | 16.57341 | 605 ft | 7 kts | 31° |
| 2026-05-06 10:12 | 48.11384 | 16.57383 | 604 ft | 10 kts | 26° |
| 2026-05-06 10:12 | 48.11466 | 16.57442 | 602 ft | 15 kts | 26° |
| 2026-05-06 10:12 | 48.11557 | 16.57452 | 601 ft | 11 kts | 343° |
| 2026-05-06 10:12 | 48.11649 | 16.57411 | 601 ft | 15 kts | 343° |
| 2026-05-06 10:13 | 48.11771 | 16.57360 | 599 ft | 19 kts | 345° |
| 2026-05-06 10:13 | 48.11905 | 16.57304 | 598 ft | 19 kts | 344° |
| 2026-05-06 10:13 | 48.11983 | 16.57316 | 596 ft | 7 kts | 60° |
| 2026-05-06 10:13 | 48.12002 | 16.57395 | 596 ft | 9 kts | 73° |
| 2026-05-06 10:14 | 48.12012 | 16.57493 | 595 ft | 8 kts | 97° |
| 2026-05-06 10:14 | 48.11996 | 16.57584 | 595 ft | 10 kts | 105° |
| 2026-05-06 10:14 | 48.11974 | 16.57706 | 594 ft | 13 kts | 107° |
| 2026-05-06 10:14 | 48.11936 | 16.57824 | 595 ft | 11 kts | 137° |
| 2026-05-06 10:15 | 48.11890 | 16.57858 | 595 ft | 6 kts | 164° |
| 2026-05-06 10:15 | 48.11818 | 16.57888 | 596 ft | 24 kts | 164° |
| 2026-05-06 10:15 | 48.11495 | 16.58024 | 597 ft | 71 kts | 164° |
| 2026-05-06 10:15 | 48.10857 | 16.58294 | 602 ft | 119 kts | 165° |
| 2026-05-06 10:16 | 48.09910 | 16.58695 | 618 ft | 163 kts | 163° |
| 2026-05-06 10:16 | 48.08768 | 16.59202 | 1050 ft | 177 kts | 162° |
| 2026-05-06 10:16 | 48.07591 | 16.59700 | 1822 ft | 173 kts | 163° |
| 2026-05-06 10:16 | 48.06375 | 16.59958 | 1989 ft | 194 kts | 188° |
| 2026-05-06 10:17 | 48.05094 | 16.58995 | 2016 ft | 227 kts | 221° |
| 2026-05-06 10:17 | 48.03979 | 16.57140 | 2325 ft | 246 kts | 225° |
| 2026-05-06 10:17 | 48.02912 | 16.55029 | 2709 ft | 266 kts | 244° |
| 2026-05-06 10:17 | 48.02567 | 16.52318 | 3400 ft | 273 kts | 268° |
| 2026-05-06 10:18 | 48.02594 | 16.49494 | 4151 ft | 274 kts | 267° |
| 2026-05-06 10:18 | 48.02591 | 16.46624 | 4864 ft | 277 kts | 267° |
| 2026-05-06 10:18 | 48.02596 | 16.43777 | 5606 ft | 278 kts | 267° |
| 2026-05-06 10:18 | 48.02602 | 16.40883 | 6298 ft | 282 kts | 267° |
| 2026-05-06 10:19 | 48.02634 | 16.37967 | 7091 ft | 282 kts | 275° |
| 2026-05-06 10:19 | 48.03185 | 16.35118 | 7810 ft | 288 kts | 290° |
| 2026-05-06 10:19 | 48.03928 | 16.32408 | 8605 ft | 287 kts | 288° |
| 2026-05-06 10:19 | 48.04673 | 16.29652 | 9376 ft | 287 kts | 288° |
| 2026-05-06 10:20 | 48.05432 | 16.26883 | 10141 ft | 288 kts | 288° |
| 2026-05-06 10:20 | 48.06179 | 16.24161 | 10398 ft | 308 kts | 289° |
| 2026-05-06 10:20 | 48.07029 | 16.21073 | 10448 ft | 335 kts | 289° |
| 2026-05-06 10:20 | 48.07941 | 16.17781 | 11026 ft | 345 kts | 289° |
| 2026-05-06 10:21 | 48.08855 | 16.14484 | 11838 ft | 346 kts | 289° |
| 2026-05-06 10:21 | 48.09767 | 16.11185 | 12604 ft | 348 kts | 289° |
| 2026-05-06 10:21 | 48.10718 | 16.07735 | 13327 ft | 352 kts | 289° |
| 2026-05-06 10:21 | 48.11651 | 16.04346 | 14009 ft | 355 kts | 289° |
| 2026-05-06 10:22 | 48.12542 | 16.01110 | 14600 ft | 359 kts | 289° |
| 2026-05-06 10:22 | 48.13497 | 15.97631 | 15234 ft | 363 kts | 289° |
| 2026-05-06 10:22 | 48.14460 | 15.94119 | 15836 ft | 367 kts | 289° |
| 2026-05-06 10:22 | 48.15444 | 15.90582 | 16460 ft | 371 kts | 290° |
| 2026-05-06 10:23 | 48.16458 | 15.87027 | 17094 ft | 374 kts | 289° |
| 2026-05-06 10:23 | 48.17471 | 15.83450 | 17687 ft | 378 kts | 289° |
| 2026-05-06 10:23 | 48.18508 | 15.79783 | 18317 ft | 381 kts | 289° |
| 2026-05-06 10:23 | 48.19535 | 15.76148 | 18921 ft | 383 kts | 289° |
| 2026-05-06 10:24 | 48.20570 | 15.72482 | 19579 ft | 385 kts | 289° |
| 2026-05-06 10:24 | 48.21625 | 15.68732 | 20170 ft | 388 kts | 289° |
| 2026-05-06 10:24 | 48.22678 | 15.64992 | 20731 ft | 391 kts | 288° |
| 2026-05-06 10:24 | 48.23733 | 15.61231 | 21316 ft | 393 kts | 288° |
| 2026-05-06 10:25 | 48.24789 | 15.57464 | 21832 ft | 396 kts | 288° |
| 2026-05-06 10:25 | 48.25850 | 15.53674 | 22327 ft | 399 kts | 288° |
| 2026-05-06 10:25 | 48.26924 | 15.49829 | 22834 ft | 401 kts | 288° |
| 2026-05-06 10:25 | 48.28001 | 15.45968 | 23309 ft | 404 kts | 287° |
| 2026-05-06 10:26 | 48.29084 | 15.42024 | 23741 ft | 405 kts | 285° |
| 2026-05-06 10:26 | 48.29871 | 15.37979 | 24196 ft | 403 kts | 278° |
| 2026-05-06 10:26 | 48.30533 | 15.33888 | 24741 ft | 405 kts | 279° |
| 2026-05-06 10:26 | 48.31159 | 15.30030 | 25167 ft | 408 kts | 278° |
| 2026-05-06 10:27 | 48.31806 | 15.26031 | 25643 ft | 409 kts | 278° |
| 2026-05-06 10:27 | 48.32483 | 15.21806 | 26074 ft | 412 kts | 278° |
| 2026-05-06 10:27 | 48.33153 | 15.17627 | 26473 ft | 415 kts | 278° |
| 2026-05-06 10:27 | 48.33825 | 15.13413 | 26876 ft | 417 kts | 278° |
| 2026-05-06 10:28 | 48.34495 | 15.09204 | 27338 ft | 418 kts | 278° |
| 2026-05-06 10:28 | 48.35173 | 15.04932 | 27694 ft | 420 kts | 278° |
| 2026-05-06 10:28 | 48.35859 | 15.00592 | 28068 ft | 423 kts | 278° |
| 2026-05-06 10:28 | 48.36535 | 14.96314 | 28413 ft | 425 kts | 278° |
| 2026-05-06 10:29 | 48.37211 | 14.92014 | 28814 ft | 426 kts | 278° |
| 2026-05-06 10:29 | 48.37837 | 14.88023 | 29095 ft | 428 kts | 278° |
| 2026-05-06 10:29 | 48.38525 | 14.83633 | 29547 ft | 428 kts | 278° |
| 2026-05-06 10:29 | 48.39201 | 14.79298 | 29752 ft | 432 kts | 278° |
| 2026-05-06 10:30 | 48.39886 | 14.74901 | 30145 ft | 432 kts | 278° |
| 2026-05-06 10:30 | 48.40573 | 14.70476 | 30395 ft | 435 kts | 278° |
| 2026-05-06 10:30 | 48.41266 | 14.65998 | 30673 ft | 437 kts | 278° |
| 2026-05-06 10:30 | 48.41959 | 14.61523 | 30975 ft | 438 kts | 278° |
| 2026-05-06 10:31 | 48.42646 | 14.57062 | 31234 ft | 439 kts | 278° |
| 2026-05-06 10:31 | 48.43334 | 14.52578 | 31469 ft | 441 kts | 278° |
| 2026-05-06 10:31 | 48.44019 | 14.48103 | 31731 ft | 441 kts | 278° |
| 2026-05-06 10:31 | 48.44702 | 14.43647 | 32188 ft | 437 kts | 278° |
| 2026-05-06 10:32 | 48.45383 | 14.39170 | 32466 ft | 437 kts | 278° |
| 2026-05-06 10:32 | 48.46058 | 14.34729 | 32832 ft | 434 kts | 277° |
| 2026-05-06 10:32 | 48.46727 | 14.30304 | 33210 ft | 432 kts | 277° |
| 2026-05-06 10:32 | 48.47387 | 14.25941 | 33508 ft | 431 kts | 277° |
| 2026-05-06 10:33 | 48.48053 | 14.21508 | 33764 ft | 428 kts | 277° |
| 2026-05-06 10:33 | 48.48703 | 14.17213 | 33784 ft | 414 kts | 277° |
| 2026-05-06 10:33 | 48.49953 | 14.08824 | 33785 ft | 417 kts | 277° |
| 2026-05-06 10:34 | 48.51232 | 14.00210 | 33785 ft | 424 kts | 277° |
| 2026-05-06 10:34 | 48.52509 | 13.91582 | 33789 ft | 428 kts | 277° |
| 2026-05-06 10:35 | 48.53798 | 13.82832 | 33787 ft | 427 kts | 277° |
| 2026-05-06 10:35 | 48.55082 | 13.74054 | 33783 ft | 427 kts | 277° |
| 2026-05-06 10:36 | 48.56348 | 13.65348 | 33785 ft | 427 kts | 277° |
| 2026-05-06 10:36 | 48.57613 | 13.56601 | 33784 ft | 428 kts | 277° |
| 2026-05-06 10:37 | 48.59139 | 13.47872 | 33792 ft | 434 kts | 284° |
| 2026-05-06 10:37 | 48.61194 | 13.39348 | 33775 ft | 434 kts | 284° |
| 2026-05-06 10:38 | 48.63190 | 13.31032 | 33787 ft | 433 kts | 283° |
| 2026-05-06 10:38 | 48.65232 | 13.22497 | 33784 ft | 432 kts | 283° |
| 2026-05-06 10:39 | 48.67264 | 13.13974 | 33776 ft | 433 kts | 283° |
| 2026-05-06 10:39 | 48.69290 | 13.05442 | 33768 ft | 433 kts | 283° |
| 2026-05-06 10:40 | 48.71306 | 12.96903 | 33763 ft | 433 kts | 283° |
| 2026-05-06 10:40 | 48.73324 | 12.88318 | 33763 ft | 434 kts | 283° |
| 2026-05-06 10:41 | 48.75353 | 12.79652 | 33771 ft | 434 kts | 283° |
| 2026-05-06 10:41 | 48.77355 | 12.71074 | 33775 ft | 433 kts | 283° |
| 2026-05-06 10:42 | 48.79356 | 12.62448 | 33780 ft | 436 kts | 283° |
| 2026-05-06 10:42 | 48.81361 | 12.53784 | 33778 ft | 434 kts | 283° |
| 2026-05-06 10:43 | 48.83303 | 12.45348 | 33784 ft | 434 kts | 283° |
| 2026-05-06 10:44 | 48.86280 | 12.32351 | 33789 ft | 435 kts | 283° |
| 2026-05-06 10:44 | 48.88264 | 12.23697 | 33788 ft | 435 kts | 284° |
| 2026-05-06 10:45 | 48.90889 | 12.15414 | 33786 ft | 442 kts | 290° |
| 2026-05-06 10:45 | 48.93568 | 12.07331 | 33780 ft | 443 kts | 290° |
| 2026-05-06 10:46 | 48.96330 | 11.99007 | 33789 ft | 444 kts | 290° |
| 2026-05-06 10:46 | 48.99102 | 11.90634 | 33790 ft | 442 kts | 290° |
| 2026-05-06 10:47 | 49.01845 | 11.82325 | 33793 ft | 443 kts | 290° |
| 2026-05-06 10:47 | 49.04595 | 11.73966 | 33791 ft | 443 kts | 290° |
| 2026-05-06 10:48 | 49.07354 | 11.65554 | 33795 ft | 444 kts | 290° |
| 2026-05-06 10:48 | 49.10068 | 11.57250 | 33795 ft | 446 kts | 290° |
| 2026-05-06 10:49 | 49.12875 | 11.48637 | 33777 ft | 444 kts | 290° |
| 2026-05-06 10:49 | 49.15605 | 11.40225 | 33769 ft | 446 kts | 290° |
| 2026-05-06 10:50 | 49.18351 | 11.31738 | 33776 ft | 444 kts | 289° |
| 2026-05-06 10:50 | 49.21058 | 11.23340 | 33776 ft | 447 kts | 289° |
| 2026-05-06 10:51 | 49.23505 | 11.14642 | 33780 ft | 445 kts | 286° |
| 2026-05-06 10:51 | 49.25821 | 11.06130 | 33780 ft | 443 kts | 286° |
| 2026-05-06 10:52 | 49.27749 | 10.99029 | 33780 ft | 444 kts | 286° |
| 2026-05-06 10:52 | 49.29377 | 10.93018 | 33780 ft | 446 kts | 286° |
| 2026-05-06 10:53 | 49.31734 | 10.84295 | 33771 ft | 447 kts | 286° |
| 2026-05-06 10:53 | 49.34257 | 10.75583 | 33782 ft | 453 kts | 294° |
| 2026-05-06 10:54 | 49.37888 | 10.67553 | 33777 ft | 459 kts | 299° |
| 2026-05-06 10:54 | 49.41597 | 10.59633 | 33782 ft | 459 kts | 300° |
| 2026-05-06 10:55 | 49.45317 | 10.51698 | 33776 ft | 459 kts | 300° |
| 2026-05-06 10:55 | 49.48948 | 10.43937 | 33780 ft | 463 kts | 300° |
| 2026-05-06 10:56 | 49.52759 | 10.35778 | 33760 ft | 460 kts | 300° |
| 2026-05-06 10:56 | 49.55970 | 10.28881 | 33778 ft | 461 kts | 299° |
| 2026-05-06 10:57 | 49.60073 | 10.20041 | 33774 ft | 461 kts | 299° |
| 2026-05-06 10:57 | 49.63675 | 10.12259 | 33769 ft | 463 kts | 299° |
| 2026-05-06 10:58 | 49.67386 | 10.04214 | 33776 ft | 464 kts | 300° |
| 2026-05-06 10:58 | 49.71096 | 9.96048 | 33768 ft | 461 kts | 296° |
| 2026-05-06 10:59 | 49.73871 | 9.87441 | 33761 ft | 455 kts | 290° |
| 2026-05-06 10:59 | 49.76238 | 9.79560 | 33763 ft | 456 kts | 289° |
| 2026-05-06 11:00 | 49.79100 | 9.69910 | 33760 ft | 455 kts | 289° |
| 2026-05-06 11:00 | 49.81670 | 9.61184 | 33756 ft | 454 kts | 290° |
| 2026-05-06 11:01 | 49.84053 | 9.52357 | 33765 ft | 453 kts | 287° |
| 2026-05-06 11:01 | 49.86385 | 9.43414 | 33763 ft | 453 kts | 288° |
| 2026-05-06 11:02 | 49.88743 | 9.34339 | 33764 ft | 453 kts | 287° |
| 2026-05-06 11:02 | 49.91019 | 9.25544 | 33757 ft | 454 kts | 287° |
| 2026-05-06 11:03 | 49.93373 | 9.16417 | 33767 ft | 454 kts | 287° |
| 2026-05-06 11:03 | 49.95724 | 9.07264 | 33761 ft | 455 kts | 287° |
| 2026-05-06 11:04 | 49.98048 | 8.98181 | 33771 ft | 455 kts | 287° |
| 2026-05-06 11:04 | 50.00220 | 8.89661 | 33781 ft | 456 kts | 287° |
| 2026-05-06 11:05 | 50.02523 | 8.80587 | 33785 ft | 456 kts | 287° |
| 2026-05-06 11:05 | 50.04842 | 8.71415 | 33787 ft | 457 kts | 287° |
| 2026-05-06 11:06 | 50.07145 | 8.62271 | 33790 ft | 456 kts | 287° |
| 2026-05-06 11:06 | 50.09426 | 8.53173 | 33795 ft | 458 kts | 288° |
| 2026-05-06 11:07 | 50.11739 | 8.43912 | 33778 ft | 460 kts | 288° |
| 2026-05-06 11:07 | 50.14028 | 8.34705 | 33769 ft | 459 kts | 287° |
| 2026-05-06 11:08 | 50.16288 | 8.25586 | 33780 ft | 459 kts | 287° |
| 2026-05-06 11:08 | 50.18575 | 8.16310 | 33771 ft | 460 kts | 287° |
| 2026-05-06 11:09 | 50.20806 | 8.07229 | 33775 ft | 459 kts | 287° |
| 2026-05-06 11:09 | 50.23056 | 7.98031 | 33771 ft | 460 kts | 287° |
| 2026-05-06 11:10 | 50.25345 | 7.88633 | 33767 ft | 462 kts | 287° |
| 2026-05-06 11:10 | 50.27544 | 7.79570 | 33768 ft | 462 kts | 288° |
| 2026-05-06 11:11 | 50.29749 | 7.70445 | 33772 ft | 462 kts | 288° |
| 2026-05-06 11:11 | 50.32006 | 7.61061 | 33768 ft | 462 kts | 288° |
| 2026-05-06 11:12 | 50.34234 | 7.51757 | 33769 ft | 462 kts | 288° |
| 2026-05-06 11:12 | 50.36458 | 7.42434 | 33773 ft | 462 kts | 288° |
| 2026-05-06 11:13 | 50.38699 | 7.32998 | 33780 ft | 463 kts | 287° |
| 2026-05-06 11:13 | 50.40888 | 7.23741 | 33785 ft | 463 kts | 287° |
| 2026-05-06 11:14 | 50.43074 | 7.14455 | 33788 ft | 465 kts | 288° |
| 2026-05-06 11:14 | 50.45312 | 7.04906 | 33786 ft | 465 kts | 288° |
| 2026-05-06 11:15 | 50.47508 | 6.95500 | 33790 ft | 464 kts | 288° |
| 2026-05-06 11:15 | 50.49717 | 6.85988 | 33783 ft | 465 kts | 288° |
| 2026-05-06 11:16 | 50.52074 | 6.76515 | 33796 ft | 465 kts | 291° |
| 2026-05-06 11:16 | 50.54553 | 6.67139 | 33805 ft | 466 kts | 291° |
| 2026-05-06 11:17 | 50.57038 | 6.57684 | 33799 ft | 467 kts | 291° |
| 2026-05-06 11:17 | 50.59495 | 6.48287 | 33795 ft | 467 kts | 291° |
| 2026-05-06 11:18 | 50.61956 | 6.38840 | 33796 ft | 467 kts | 291° |
| 2026-05-06 11:18 | 50.64399 | 6.29418 | 33808 ft | 467 kts | 290° |
| 2026-05-06 11:19 | 50.66797 | 6.20135 | 33815 ft | 467 kts | 290° |
| 2026-05-06 11:19 | 50.69040 | 6.11414 | 33819 ft | 467 kts | 291° |
| 2026-05-06 11:20 | 50.71468 | 6.01934 | 33808 ft | 468 kts | 291° |
| 2026-05-06 11:20 | 50.73902 | 5.92391 | 33820 ft | 468 kts | 291° |
| 2026-05-06 11:21 | 50.76323 | 5.82864 | 33845 ft | 467 kts | 291° |
| 2026-05-06 11:21 | 50.78719 | 5.73391 | 33866 ft | 467 kts | 291° |
| 2026-05-06 11:22 | 50.81113 | 5.63888 | 33845 ft | 466 kts | 291° |
| 2026-05-06 11:22 | 50.83499 | 5.54372 | 33845 ft | 466 kts | 291° |
| 2026-05-06 11:23 | 50.85870 | 5.44881 | 33841 ft | 468 kts | 291° |
| 2026-05-06 11:23 | 50.88233 | 5.35378 | 33848 ft | 468 kts | 291° |
| 2026-05-06 11:24 | 50.90611 | 5.25778 | 33845 ft | 467 kts | 290° |
| 2026-05-06 11:24 | 50.92976 | 5.16184 | 33843 ft | 467 kts | 290° |
| 2026-05-06 11:25 | 50.95334 | 5.06580 | 33848 ft | 467 kts | 290° |
| 2026-05-06 11:25 | 50.97679 | 4.96982 | 33853 ft | 466 kts | 290° |
| 2026-05-06 11:26 | 51.00001 | 4.87441 | 33854 ft | 466 kts | 291° |
| 2026-05-06 11:26 | 51.02322 | 4.77864 | 33871 ft | 466 kts | 291° |
| 2026-05-06 11:27 | 51.04639 | 4.68257 | 33874 ft | 467 kts | 290° |
| 2026-05-06 11:27 | 51.06895 | 4.58862 | 33874 ft | 466 kts | 290° |
| 2026-05-06 11:28 | 51.09185 | 4.49287 | 33871 ft | 465 kts | 291° |
| 2026-05-06 11:28 | 51.11469 | 4.39691 | 33876 ft | 465 kts | 290° |
| 2026-05-06 11:29 | 51.13739 | 4.30118 | 33875 ft | 464 kts | 290° |
| 2026-05-06 11:29 | 51.15995 | 4.20480 | 33880 ft | 465 kts | 287° |
| 2026-05-06 11:30 | 51.17542 | 4.10473 | 33887 ft | 467 kts | 282° |
| 2026-05-06 11:30 | 51.18951 | 4.00387 | 33880 ft | 464 kts | 282° |
| 2026-05-06 11:31 | 51.20220 | 3.91087 | 33888 ft | 464 kts | 282° |
| 2026-05-06 11:31 | 51.21558 | 3.81165 | 33890 ft | 463 kts | 282° |
| 2026-05-06 11:32 | 51.22884 | 3.71248 | 33891 ft | 462 kts | 282° |
| 2026-05-06 11:32 | 51.24206 | 3.61329 | 33894 ft | 462 kts | 282° |
| 2026-05-06 11:33 | 51.25530 | 3.51393 | 33893 ft | 463 kts | 282° |
| 2026-05-06 11:33 | 51.26857 | 3.41357 | 33890 ft | 462 kts | 282° |
| 2026-05-06 11:34 | 51.28108 | 3.31679 | 33887 ft | 461 kts | 281° |
| 2026-05-06 11:34 | 51.29344 | 3.22040 | 33888 ft | 461 kts | 281° |
| 2026-05-06 11:35 | 51.30619 | 3.12034 | 33891 ft | 460 kts | 281° |
| 2026-05-06 11:35 | 51.31875 | 3.02100 | 33893 ft | 460 kts | 281° |
| 2026-05-06 11:36 | 51.33134 | 2.92075 | 33894 ft | 461 kts | 281° |
| 2026-05-06 11:36 | 51.34383 | 2.82052 | 33902 ft | 461 kts | 281° |
| 2026-05-06 11:37 | 51.35630 | 2.71985 | 33903 ft | 463 kts | 281° |
| 2026-05-06 11:37 | 51.36868 | 2.61952 | 33905 ft | 461 kts | 281° |
| 2026-05-06 11:38 | 51.38097 | 2.51905 | 33907 ft | 459 kts | 281° |
| 2026-05-06 11:38 | 51.39306 | 2.41958 | 33911 ft | 459 kts | 281° |
| 2026-05-06 11:39 | 51.40457 | 2.32423 | 33917 ft | 459 kts | 280° |
| 2026-05-06 11:39 | 51.41670 | 2.22382 | 33924 ft | 459 kts | 281° |
| 2026-05-06 11:40 | 51.42881 | 2.12475 | 33934 ft | 457 kts | 281° |
| 2026-05-06 11:40 | 51.44060 | 2.02749 | 33925 ft | 457 kts | 281° |
| 2026-05-06 11:41 | 51.45250 | 1.92742 | 33915 ft | 458 kts | 280° |
| 2026-05-06 11:41 | 51.46425 | 1.82696 | 33930 ft | 458 kts | 280° |
| 2026-05-06 11:42 | 51.47581 | 1.72693 | 33930 ft | 457 kts | 280° |
| 2026-05-06 11:42 | 51.48729 | 1.62689 | 33932 ft | 457 kts | 280° |
| 2026-05-06 11:43 | 51.49868 | 1.52687 | 33925 ft | 457 kts | 280° |
| 2026-05-06 11:43 | 51.50998 | 1.42679 | 33929 ft | 457 kts | 280° |
| 2026-05-06 11:44 | 51.52669 | 1.27736 | 33925 ft | 456 kts | 279° |
| 2026-05-06 11:44 | 51.53778 | 1.17714 | 33934 ft | 456 kts | 279° |
| 2026-05-06 11:45 | 51.54613 | 1.07908 | 33925 ft | 457 kts | 275° |
| 2026-05-06 11:45 | 51.55248 | 0.97780 | 33935 ft | 457 kts | 276° |
| 2026-05-06 11:46 | 51.55865 | 0.87963 | 33944 ft | 455 kts | 276° |
| 2026-05-06 11:46 | 51.56496 | 0.77818 | 33945 ft | 456 kts | 276° |
| 2026-05-06 11:47 | 51.57116 | 0.67746 | 33952 ft | 455 kts | 276° |
| 2026-05-06 11:47 | 51.57731 | 0.57594 | 33955 ft | 455 kts | 276° |
| 2026-05-06 11:48 | 51.58324 | 0.47668 | 33953 ft | 455 kts | 276° |
| 2026-05-06 11:48 | 51.58917 | 0.37601 | 33962 ft | 455 kts | 276° |
| 2026-05-06 11:49 | 51.59504 | 0.27481 | 33960 ft | 456 kts | 275° |
| 2026-05-06 11:49 | 51.60078 | 0.17433 | 33972 ft | 455 kts | 275° |
| 2026-05-06 11:50 | 51.60645 | 0.07360 | 33971 ft | 455 kts | 275° |
| 2026-05-06 11:50 | 51.61200 | -0.02662 | 33973 ft | 454 kts | 275° |
| 2026-05-06 11:51 | 51.61731 | -0.12324 | 33973 ft | 453 kts | 276° |
| 2026-05-06 11:51 | 51.62365 | -0.22541 | 33976 ft | 452 kts | 276° |
| 2026-05-06 11:52 | 51.62980 | -0.32614 | 33972 ft | 453 kts | 276° |
| 2026-05-06 11:52 | 51.63588 | -0.42714 | 33972 ft | 453 kts | 276° |
| 2026-05-06 11:53 | 51.64185 | -0.52765 | 33973 ft | 453 kts | 276° |
| 2026-05-06 11:53 | 51.64774 | -0.62837 | 33969 ft | 452 kts | 276° |
| 2026-05-06 11:54 | 51.65351 | -0.72876 | 33967 ft | 451 kts | 275° |
| 2026-05-06 11:54 | 51.65916 | -0.82817 | 33966 ft | 450 kts | 275° |
| 2026-05-06 11:55 | 51.66477 | -0.92867 | 33969 ft | 451 kts | 275° |
| 2026-05-06 11:55 | 51.67018 | -1.02707 | 33974 ft | 450 kts | 275° |
| 2026-05-06 11:56 | 51.67559 | -1.12701 | 33976 ft | 450 kts | 275° |
| 2026-05-06 11:56 | 51.68092 | -1.22687 | 33977 ft | 450 kts | 275° |
| 2026-05-06 11:57 | 51.68615 | -1.32665 | 33981 ft | 450 kts | 275° |
| 2026-05-06 11:57 | 51.69131 | -1.42674 | 33985 ft | 449 kts | 275° |
| 2026-05-06 11:58 | 51.69640 | -1.52707 | 33989 ft | 447 kts | 275° |
| 2026-05-06 11:58 | 51.70136 | -1.62667 | 33997 ft | 448 kts | 275° |
| 2026-05-06 11:59 | 51.70700 | -1.72469 | 34005 ft | 448 kts | 276° |
| 2026-05-06 11:59 | 51.71428 | -1.82357 | 34006 ft | 448 kts | 276° |
| 2026-05-06 12:00 | 51.72145 | -1.92346 | 34007 ft | 447 kts | 276° |
| 2026-05-06 12:00 | 51.72849 | -2.02268 | 34007 ft | 447 kts | 276° |
| 2026-05-06 12:01 | 51.73542 | -2.12175 | 34009 ft | 447 kts | 276° |
| 2026-05-06 12:01 | 51.74231 | -2.22125 | 34015 ft | 446 kts | 276° |
| 2026-05-06 12:02 | 51.74902 | -2.31968 | 34016 ft | 444 kts | 276° |
| 2026-05-06 12:02 | 51.75561 | -2.41747 | 34017 ft | 444 kts | 276° |
| 2026-05-06 12:03 | 51.76216 | -2.51587 | 34016 ft | 444 kts | 276° |
| 2026-05-06 12:03 | 51.76867 | -2.61501 | 34015 ft | 443 kts | 276° |
| 2026-05-06 12:04 | 51.77501 | -2.71249 | 34011 ft | 443 kts | 275° |
| 2026-05-06 12:04 | 51.78124 | -2.81024 | 34015 ft | 443 kts | 275° |
| 2026-05-06 12:05 | 51.78745 | -2.90861 | 34018 ft | 442 kts | 275° |
| 2026-05-06 12:05 | 51.79357 | -3.00690 | 34019 ft | 441 kts | 275° |
| 2026-05-06 12:06 | 51.79965 | -3.10586 | 34016 ft | 442 kts | 275° |
| 2026-05-06 12:06 | 51.80564 | -3.20469 | 34001 ft | 442 kts | 275° |
| 2026-05-06 12:07 | 51.81152 | -3.30312 | 33989 ft | 443 kts | 275° |
| 2026-05-06 12:07 | 51.81737 | -3.40257 | 33989 ft | 443 kts | 275° |
| 2026-05-06 12:08 | 51.82310 | -3.50131 | 33990 ft | 443 kts | 275° |
| 2026-05-06 12:08 | 51.83333 | -3.59863 | 33996 ft | 442 kts | 282° |
| 2026-05-06 12:09 | 51.84567 | -3.69517 | 33997 ft | 442 kts | 281° |
| 2026-05-06 12:09 | 51.85815 | -3.79245 | 33998 ft | 442 kts | 281° |
| 2026-05-06 12:10 | 51.87049 | -3.88897 | 33996 ft | 442 kts | 281° |
| 2026-05-06 12:10 | 51.88288 | -3.98654 | 33999 ft | 443 kts | 281° |
| 2026-05-06 12:11 | 51.89519 | -4.08411 | 33996 ft | 444 kts | 281° |
| 2026-05-06 12:11 | 51.90741 | -4.18168 | 33996 ft | 442 kts | 281° |
| 2026-05-06 12:12 | 51.91950 | -4.27894 | 33998 ft | 442 kts | 281° |
| 2026-05-06 12:12 | 51.93151 | -4.37619 | 33997 ft | 441 kts | 281° |
| 2026-05-06 12:13 | 51.94343 | -4.47341 | 33996 ft | 442 kts | 281° |
| 2026-05-06 12:13 | 51.95533 | -4.57119 | 33994 ft | 440 kts | 281° |
| 2026-05-06 12:14 | 51.96706 | -4.66834 | 33997 ft | 441 kts | 281° |
| 2026-05-06 12:14 | 51.97866 | -4.76510 | 34000 ft | 441 kts | 281° |
| 2026-05-06 12:15 | 51.99037 | -4.86342 | 33999 ft | 443 kts | 281° |
| 2026-05-06 12:15 | 52.00210 | -4.96270 | 33995 ft | 442 kts | 281° |
| 2026-05-06 12:16 | 52.01366 | -5.06137 | 34003 ft | 441 kts | 281° |
| 2026-05-06 12:16 | 52.02516 | -5.16018 | 34002 ft | 440 kts | 281° |
| 2026-05-06 12:17 | 52.04177 | -5.25624 | 34008 ft | 440 kts | 288° |
| 2026-05-06 12:17 | 52.06126 | -5.35326 | 34003 ft | 440 kts | 288° |
| 2026-05-06 12:18 | 52.08049 | -5.44899 | 34003 ft | 441 kts | 288° |
| 2026-05-06 12:18 | 52.09987 | -5.54581 | 34003 ft | 441 kts | 288° |
| 2026-05-06 12:19 | 52.11826 | -5.63812 | 34003 ft | 440 kts | 288° |
| 2026-05-06 12:19 | 52.13710 | -5.73311 | 34016 ft | 440 kts | 287° |
| 2026-05-06 12:20 | 52.15563 | -5.82798 | 34016 ft | 440 kts | 285° |
| 2026-05-06 12:20 | 52.16737 | -5.92561 | 34019 ft | 440 kts | 281° |
| 2026-05-06 12:21 | 52.17810 | -6.02350 | 34024 ft | 440 kts | 280° |
| 2026-05-06 12:21 | 52.18824 | -6.11784 | 34023 ft | 441 kts | 280° |
| 2026-05-06 12:22 | 52.19873 | -6.21659 | 34018 ft | 441 kts | 280° |
| 2026-05-06 12:22 | 52.20906 | -6.31480 | 34018 ft | 441 kts | 281° |
| 2026-05-06 12:23 | 52.21934 | -6.41345 | 34017 ft | 442 kts | 281° |
| 2026-05-06 12:23 | 52.22953 | -6.51201 | 34021 ft | 441 kts | 281° |
| 2026-05-06 12:24 | 52.23962 | -6.61052 | 34017 ft | 441 kts | 281° |
| 2026-05-06 12:24 | 52.24961 | -6.70882 | 34021 ft | 442 kts | 280° |
| 2026-05-06 12:25 | 52.25959 | -6.80788 | 34023 ft | 443 kts | 280° |
| 2026-05-06 12:25 | 52.26951 | -6.90723 | 34025 ft | 443 kts | 280° |
| 2026-05-06 12:26 | 52.27931 | -7.00626 | 34021 ft | 443 kts | 280° |
| 2026-05-06 12:26 | 52.28898 | -7.10479 | 34024 ft | 443 kts | 280° |
| 2026-05-06 12:27 | 52.29814 | -7.19904 | 34029 ft | 444 kts | 280° |
| 2026-05-06 12:27 | 52.30761 | -7.29729 | 34028 ft | 444 kts | 280° |
| 2026-05-06 12:28 | 52.31710 | -7.39669 | 34020 ft | 445 kts | 280° |
| 2026-05-06 12:28 | 52.32635 | -7.49444 | 34015 ft | 445 kts | 281° |
| 2026-05-06 12:29 | 52.33576 | -7.59484 | 34006 ft | 446 kts | 281° |
| 2026-05-06 12:29 | 52.34504 | -7.69470 | 34009 ft | 447 kts | 279° |
| 2026-05-06 12:30 | 52.35426 | -7.79504 | 34010 ft | 448 kts | 280° |
| 2026-05-06 12:30 | 52.36338 | -7.89506 | 34004 ft | 448 kts | 280° |
| 2026-05-06 12:31 | 52.37245 | -7.99566 | 34006 ft | 447 kts | 280° |
| 2026-05-06 12:31 | 52.38141 | -8.09589 | 34000 ft | 448 kts | 280° |
| 2026-05-06 12:32 | 52.39032 | -8.19675 | 33994 ft | 449 kts | 280° |
| 2026-05-06 12:32 | 52.39784 | -8.29794 | 34007 ft | 450 kts | 276° |
| 2026-05-06 12:33 | 52.40250 | -8.40036 | 33995 ft | 451 kts | 277° |
| 2026-05-06 12:33 | 52.40691 | -8.50250 | 33994 ft | 452 kts | 277° |
| 2026-05-06 12:34 | 52.41120 | -8.60542 | 33998 ft | 453 kts | 277° |
| 2026-05-06 12:34 | 52.41539 | -8.70859 | 33990 ft | 454 kts | 276° |
| 2026-05-06 12:35 | 52.41945 | -8.81112 | 34001 ft | 454 kts | 276° |
| 2026-05-06 12:35 | 52.42345 | -8.91421 | 33993 ft | 455 kts | 276° |
| 2026-05-06 12:36 | 52.42732 | -9.01619 | 34174 ft | 459 kts | 276° |
| 2026-05-06 12:36 | 52.42925 | -9.06832 | 34482 ft | 459 kts | 276° |
| 2026-05-06 12:36 | 52.43115 | -9.12019 | 34706 ft | 459 kts | 276° |
| 2026-05-06 12:37 | 52.43304 | -9.17216 | 34987 ft | 459 kts | 276° |
| 2026-05-06 12:37 | 52.43491 | -9.22396 | 35127 ft | 460 kts | 276° |
| 2026-05-06 12:37 | 52.43677 | -9.27628 | 35333 ft | 458 kts | 276° |
| 2026-05-06 12:37 | 52.43858 | -9.32809 | 35478 ft | 458 kts | 276° |
| 2026-05-06 12:38 | 52.44038 | -9.37997 | 35620 ft | 458 kts | 276° |
| 2026-05-06 12:38 | 52.44215 | -9.43212 | 35765 ft | 458 kts | 276° |
| 2026-05-06 12:38 | 52.44391 | -9.48418 | 35919 ft | 457 kts | 276° |
| 2026-05-06 12:38 | 52.44562 | -9.53577 | 35991 ft | 455 kts | 276° |
| 2026-05-06 12:39 | 52.44900 | -9.63948 | 36007 ft | 458 kts | 276° |
| 2026-05-06 12:39 | 52.45231 | -9.74369 | 36012 ft | 458 kts | 275° |
| 2026-05-06 12:40 | 52.45553 | -9.84829 | 36011 ft | 458 kts | 275° |
| 2026-05-06 12:40 | 52.45861 | -9.95100 | 36014 ft | 458 kts | 276° |
| 2026-05-06 12:41 | 52.46164 | -10.05539 | 36016 ft | 459 kts | 276° |
| 2026-05-06 12:41 | 52.46461 | -10.16063 | 36021 ft | 461 kts | 276° |
| 2026-05-06 12:42 | 52.46746 | -10.26492 | 36018 ft | 460 kts | 276° |
| 2026-05-06 12:42 | 52.47021 | -10.36905 | 36017 ft | 460 kts | 276° |
| 2026-05-06 12:43 | 52.47289 | -10.47420 | 36017 ft | 460 kts | 276° |
| 2026-05-06 12:43 | 52.47547 | -10.57856 | 36019 ft | 461 kts | 276° |
| 2026-05-06 12:44 | 52.47796 | -10.68341 | 36014 ft | 462 kts | 275° |
| 2026-05-06 12:44 | 52.48036 | -10.78855 | 36019 ft | 462 kts | 275° |
| 2026-05-06 12:45 | 52.48269 | -10.89438 | 36022 ft | 462 kts | 275° |
| 2026-05-06 12:46 | 52.48598 | -11.05196 | 36033 ft | 462 kts | 275° |
| 2026-05-06 12:46 | 52.48671 | -11.08850 | 36035 ft | 462 kts | 275° |
| 2026-05-06 12:47 | 52.48873 | -11.19228 | 36038 ft | 463 kts | 275° |
| 2026-05-06 12:47 | 52.49068 | -11.29733 | 36036 ft | 463 kts | 275° |
| 2026-05-06 12:48 | 52.49255 | -11.40308 | 36034 ft | 463 kts | 275° |
| 2026-05-06 12:48 | 52.49431 | -11.50793 | 36033 ft | 463 kts | 275° |
| 2026-05-06 12:49 | 52.49599 | -11.61358 | 36033 ft | 462 kts | 275° |
| 2026-05-06 12:49 | 52.49757 | -11.71906 | 36038 ft | 463 kts | 275° |
| 2026-05-06 12:50 | 52.49905 | -11.82325 | 36038 ft | 463 kts | 275° |
| 2026-05-06 12:50 | 52.50044 | -11.92834 | 36034 ft | 464 kts | 275° |
| 2026-05-06 12:51 | 52.50175 | -12.03430 | 36045 ft | 464 kts | 275° |
| 2026-05-06 12:51 | 52.50296 | -12.14023 | 36048 ft | 464 kts | 275° |
| 2026-05-06 12:52 | 52.50408 | -12.24580 | 36045 ft | 463 kts | 275° |
| 2026-05-06 12:52 | 52.50510 | -12.35117 | 36040 ft | 463 kts | 275° |
| 2026-05-06 12:53 | 52.50603 | -12.45715 | 36034 ft | 463 kts | 275° |
| 2026-05-06 12:53 | 52.50687 | -12.56259 | 36042 ft | 464 kts | 275° |
| 2026-05-06 12:54 | 52.50759 | -12.66579 | 36032 ft | 463 kts | 274° |
| 2026-05-06 12:54 | 52.50824 | -12.77088 | 36038 ft | 463 kts | 274° |
| 2026-05-06 12:55 | 52.50879 | -12.87678 | 36037 ft | 462 kts | 274° |
| 2026-05-06 12:55 | 52.50925 | -12.98290 | 36034 ft | 463 kts | 274° |
| 2026-05-06 12:56 | 52.50962 | -13.08870 | 36032 ft | 462 kts | 274° |
| 2026-05-06 12:56 | 52.50990 | -13.19580 | 36039 ft | 462 kts | 274° |
| 2026-05-06 12:57 | 52.51008 | -13.30143 | 36036 ft | 462 kts | 274° |
| 2026-05-06 12:57 | 52.51015 | -13.40655 | 36034 ft | 462 kts | 274° |
| 2026-05-06 12:58 | 52.51014 | -13.51225 | 36035 ft | 462 kts | 274° |
| 2026-05-06 12:58 | 52.51004 | -13.61758 | 36033 ft | 461 kts | 274° |
| 2026-05-06 12:59 | 52.50985 | -13.72260 | 36033 ft | 462 kts | 273° |
| 2026-05-06 12:59 | 52.50955 | -13.82755 | 36025 ft | 461 kts | 273° |
| 2026-05-06 13:00 | 52.50917 | -13.93274 | 36021 ft | 461 kts | 273° |
| 2026-05-06 13:00 | 52.50870 | -14.03543 | 36027 ft | 461 kts | 273° |
| 2026-05-06 13:01 | 52.50813 | -14.14125 | 36024 ft | 459 kts | 273° |
| 2026-05-06 13:01 | 52.50748 | -14.24544 | 36026 ft | 459 kts | 273° |
| 2026-05-06 13:02 | 52.50673 | -14.34996 | 36023 ft | 460 kts | 273° |
| 2026-05-06 13:02 | 52.50588 | -14.45503 | 36018 ft | 460 kts | 273° |
| 2026-05-06 13:03 | 52.50495 | -14.55972 | 36020 ft | 459 kts | 273° |
| 2026-05-06 13:03 | 52.50392 | -14.66414 | 36024 ft | 458 kts | 272° |
| 2026-05-06 13:04 | 52.50281 | -14.76852 | 36026 ft | 459 kts | 272° |
| 2026-05-06 13:04 | 52.50159 | -14.87334 | 36031 ft | 459 kts | 272° |
| 2026-05-06 13:05 | 52.50033 | -14.97782 | 36030 ft | 457 kts | 274° |
| 2026-05-06 13:05 | 52.50900 | -15.07990 | 36032 ft | 451 kts | 285° |
| 2026-05-06 13:06 | 52.52173 | -15.18030 | 36025 ft | 452 kts | 284° |
| 2026-05-06 13:06 | 52.53402 | -15.28123 | 36027 ft | 452 kts | 284° |
| 2026-05-06 13:07 | 52.54610 | -15.38203 | 36028 ft | 452 kts | 284° |
| 2026-05-06 13:07 | 52.55822 | -15.48429 | 36023 ft | 451 kts | 284° |
| 2026-05-06 13:08 | 52.57022 | -15.58634 | 36025 ft | 455 kts | 284° |
| 2026-05-06 13:08 | 52.58220 | -15.68911 | 36021 ft | 457 kts | 283° |
| 2026-05-06 13:09 | 52.59419 | -15.79283 | 36022 ft | 456 kts | 283° |
| 2026-05-06 13:09 | 52.60597 | -15.89549 | 36022 ft | 456 kts | 283° |
| 2026-05-06 13:10 | 52.61768 | -15.99845 | 36026 ft | 456 kts | 283° |
| 2026-05-06 13:10 | 52.62924 | -16.10082 | 36025 ft | 456 kts | 283° |
| 2026-05-06 13:11 | 52.64075 | -16.20373 | 36023 ft | 456 kts | 283° |
| 2026-05-06 13:11 | 52.65224 | -16.30720 | 36017 ft | 455 kts | 283° |
| 2026-05-06 13:12 | 52.66354 | -16.40985 | 36019 ft | 455 kts | 283° |
| 2026-05-06 13:12 | 52.67482 | -16.51318 | 36017 ft | 455 kts | 283° |
| 2026-05-06 13:13 | 52.68597 | -16.61614 | 36018 ft | 455 kts | 283° |
| 2026-05-06 13:13 | 52.69712 | -16.72016 | 36020 ft | 455 kts | 282° |
| 2026-05-06 13:14 | 52.70821 | -16.82433 | 36015 ft | 455 kts | 282° |
| 2026-05-06 13:14 | 52.71915 | -16.92805 | 36019 ft | 456 kts | 282° |
| 2026-05-06 13:15 | 52.73011 | -17.03297 | 36022 ft | 454 kts | 282° |
| 2026-05-06 13:15 | 52.74085 | -17.13662 | 36020 ft | 453 kts | 282° |
| 2026-05-06 13:16 | 52.75161 | -17.24138 | 36023 ft | 454 kts | 282° |
| 2026-05-06 13:16 | 52.76212 | -17.34467 | 36028 ft | 453 kts | 282° |
| 2026-05-06 13:17 | 52.77277 | -17.45038 | 36025 ft | 453 kts | 281° |
| 2026-05-06 13:17 | 52.78321 | -17.55489 | 36024 ft | 454 kts | 281° |
| 2026-05-06 13:18 | 52.79369 | -17.66080 | 36020 ft | 454 kts | 281° |
| 2026-05-06 13:18 | 52.80392 | -17.76513 | 36015 ft | 454 kts | 280° |
| 2026-05-06 13:19 | 52.81411 | -17.87007 | 36016 ft | 453 kts | 280° |
| 2026-05-06 13:19 | 52.82414 | -17.97437 | 36016 ft | 452 kts | 280° |
| 2026-05-06 13:20 | 52.83403 | -18.07824 | 36016 ft | 453 kts | 280° |
| 2026-05-06 13:20 | 52.84396 | -18.18344 | 36014 ft | 453 kts | 280° |
| 2026-05-06 13:21 | 52.85372 | -18.28791 | 36015 ft | 453 kts | 280° |
| 2026-05-06 13:21 | 52.86333 | -18.39180 | 36014 ft | 453 kts | 280° |
| 2026-05-06 13:22 | 52.87275 | -18.49476 | 36015 ft | 453 kts | 280° |
| 2026-05-06 13:22 | 52.88217 | -18.59861 | 36014 ft | 453 kts | 279° |
| 2026-05-06 13:23 | 52.89152 | -18.70275 | 36018 ft | 453 kts | 279° |
| 2026-05-06 13:23 | 52.90083 | -18.80760 | 36014 ft | 453 kts | 278° |
| 2026-05-06 13:24 | 52.91011 | -18.91311 | 36015 ft | 453 kts | 278° |
| 2026-05-06 13:24 | 52.91917 | -19.01728 | 36015 ft | 454 kts | 278° |
| 2026-05-06 13:25 | 52.92827 | -19.12290 | 36013 ft | 454 kts | 278° |
| 2026-05-06 13:25 | 52.93721 | -19.22781 | 36013 ft | 453 kts | 278° |
| 2026-05-06 13:26 | 52.94597 | -19.33181 | 36012 ft | 453 kts | 278° |
| 2026-05-06 13:26 | 52.95458 | -19.43520 | 36004 ft | 453 kts | 278° |
| 2026-05-06 13:27 | 52.96310 | -19.53852 | 36002 ft | 453 kts | 278° |
| 2026-05-06 13:27 | 52.97157 | -19.64232 | 36001 ft | 454 kts | 278° |
| 2026-05-06 13:28 | 52.97988 | -19.74531 | 36002 ft | 454 kts | 277° |
| 2026-05-06 13:28 | 52.98820 | -19.84970 | 36007 ft | 455 kts | 277° |
| 2026-05-06 13:29 | 52.99638 | -19.95344 | 36002 ft | 453 kts | 277° |
| 2026-05-06 13:29 | 53.00224 | -20.05737 | 36010 ft | 454 kts | 274° |
| 2026-05-06 13:30 | 53.00668 | -20.16236 | 36008 ft | 454 kts | 274° |
| 2026-05-06 13:30 | 53.01091 | -20.26672 | 36008 ft | 454 kts | 273° |
| 2026-05-06 13:31 | 53.01508 | -20.37225 | 36011 ft | 454 kts | 273° |
| 2026-05-06 13:31 | 53.01909 | -20.47664 | 36007 ft | 454 kts | 273° |
| 2026-05-06 13:32 | 53.02304 | -20.58162 | 36009 ft | 454 kts | 273° |
| 2026-05-06 13:32 | 53.02685 | -20.68576 | 36010 ft | 455 kts | 272° |
| 2026-05-06 13:33 | 53.03066 | -20.79208 | 36006 ft | 455 kts | 272° |
| 2026-05-06 13:33 | 53.03440 | -20.89938 | 36013 ft | 455 kts | 272° |
| 2026-05-06 13:34 | 53.03808 | -21.00753 | 36007 ft | 455 kts | 272° |
| 2026-05-06 13:34 | 53.04163 | -21.11455 | 36013 ft | 454 kts | 272° |
| 2026-05-06 13:35 | 53.04510 | -21.22256 | 36010 ft | 453 kts | 272° |
| 2026-05-06 13:35 | 53.04846 | -21.33011 | 36020 ft | 455 kts | 272° |
| 2026-05-06 13:36 | 53.05166 | -21.43549 | 36022 ft | 455 kts | 272° |
| 2026-05-06 13:36 | 53.05486 | -21.54404 | 36023 ft | 455 kts | 272° |
| 2026-05-06 13:37 | 53.05791 | -21.65104 | 36026 ft | 456 kts | 271° |
| 2026-05-06 13:37 | 53.06093 | -21.76020 | 36027 ft | 455 kts | 271° |
| 2026-05-06 13:38 | 53.06381 | -21.86780 | 36029 ft | 456 kts | 271° |
| 2026-05-06 13:38 | 53.06661 | -21.97614 | 36027 ft | 456 kts | 271° |
| 2026-05-06 13:39 | 53.06929 | -22.08395 | 36027 ft | 456 kts | 271° |
| 2026-05-06 13:39 | 53.07189 | -22.19212 | 36020 ft | 456 kts | 270° |
| 2026-05-06 13:40 | 53.07438 | -22.30004 | 36030 ft | 456 kts | 270° |
| 2026-05-06 13:40 | 53.07680 | -22.40877 | 36022 ft | 456 kts | 270° |
| 2026-05-06 13:41 | 53.07910 | -22.51699 | 36027 ft | 457 kts | 270° |
| 2026-05-06 13:41 | 53.08130 | -22.62520 | 36029 ft | 457 kts | 270° |
| 2026-05-06 13:42 | 53.08343 | -22.73432 | 36025 ft | 457 kts | 269° |
| 2026-05-06 13:42 | 53.08544 | -22.84322 | 36027 ft | 457 kts | 269° |
| 2026-05-06 13:43 | 53.08738 | -22.95259 | 36024 ft | 457 kts | 269° |
| 2026-05-06 13:43 | 53.08920 | -23.06179 | 36025 ft | 457 kts | 269° |
| 2026-05-06 13:44 | 53.09091 | -23.17009 | 36024 ft | 458 kts | 269° |
| 2026-05-06 13:44 | 53.09255 | -23.28032 | 36017 ft | 458 kts | 269° |
| 2026-05-06 13:45 | 53.09407 | -23.38932 | 36023 ft | 458 kts | 269° |
| 2026-05-06 13:45 | 53.09617 | -23.55356 | 36025 ft | 460 kts | 269° |
| 2026-05-06 13:46 | 53.09745 | -23.66313 | 36026 ft | 459 kts | 268° |
| 2026-05-06 13:46 | 53.09864 | -23.77350 | 36025 ft | 460 kts | 268° |
| 2026-05-06 13:47 | 53.09972 | -23.88331 | 36024 ft | 460 kts | 268° |
| 2026-05-06 13:47 | 53.10069 | -23.99304 | 36011 ft | 460 kts | 268° |
| 2026-05-06 13:48 | 53.10157 | -24.10400 | 36011 ft | 461 kts | 268° |
| 2026-05-06 13:48 | 53.10236 | -24.21499 | 36014 ft | 461 kts | 268° |
| 2026-05-06 13:49 | 53.10303 | -24.32601 | 36021 ft | 461 kts | 268° |
| 2026-05-06 13:49 | 53.10359 | -24.43440 | 36018 ft | 461 kts | 268° |
| 2026-05-06 13:50 | 53.10407 | -24.54534 | 36019 ft | 461 kts | 268° |
| 2026-05-06 13:50 | 53.10444 | -24.65486 | 36011 ft | 460 kts | 268° |
| 2026-05-06 13:51 | 53.10470 | -24.76444 | 36240 ft | 463 kts | 268° |
| 2026-05-06 13:51 | 53.10480 | -24.81916 | 36013 ft | 461 kts | 268° |
| 2026-05-06 13:51 | 53.10488 | -24.87357 | 36005 ft | 454 kts | 267° |
| 2026-05-06 13:52 | 53.10493 | -24.98211 | 36003 ft | 457 kts | 267° |
| 2026-05-06 13:52 | 53.10490 | -25.09167 | 36010 ft | 460 kts | 267° |
| 2026-05-06 13:53 | 53.10477 | -25.20162 | 36017 ft | 457 kts | 268° |
| 2026-05-06 13:53 | 53.10453 | -25.31013 | 36016 ft | 458 kts | 267° |
| 2026-05-06 13:54 | 53.10420 | -25.41893 | 36011 ft | 457 kts | 268° |
| 2026-05-06 13:54 | 53.10377 | -25.52744 | 36013 ft | 457 kts | 268° |
| 2026-05-06 13:55 | 53.10323 | -25.63617 | 36010 ft | 459 kts | 268° |
| 2026-05-06 13:55 | 53.10260 | -25.74575 | 36012 ft | 458 kts | 267° |
| 2026-05-06 13:56 | 53.10187 | -25.85483 | 36019 ft | 458 kts | 267° |
| 2026-05-06 13:56 | 53.10104 | -25.96380 | 36020 ft | 457 kts | 267° |
| 2026-05-06 13:57 | 53.10011 | -26.07275 | 36016 ft | 458 kts | 267° |
| 2026-05-06 13:57 | 53.09908 | -26.18149 | 36015 ft | 458 kts | 267° |
| 2026-05-06 13:58 | 53.09795 | -26.29055 | 36012 ft | 458 kts | 267° |
| 2026-05-06 13:58 | 53.09672 | -26.39937 | 36013 ft | 458 kts | 267° |
| 2026-05-06 13:59 | 53.09540 | -26.50805 | 36000 ft | 457 kts | 267° |
| 2026-05-06 13:59 | 53.09398 | -26.61703 | 35996 ft | 457 kts | 267° |
| 2026-05-06 14:00 | 53.09244 | -26.72614 | 35991 ft | 457 kts | 266° |
| 2026-05-06 14:00 | 53.09080 | -26.83606 | 36000 ft | 457 kts | 266° |
| 2026-05-06 14:01 | 53.08908 | -26.94452 | 36004 ft | 457 kts | 266° |
| 2026-05-06 14:01 | 53.08725 | -27.05361 | 36002 ft | 457 kts | 266° |
| 2026-05-06 14:02 | 53.08533 | -27.16232 | 35997 ft | 457 kts | 266° |
| 2026-05-06 14:02 | 53.08331 | -27.27129 | 35993 ft | 457 kts | 266° |
| 2026-05-06 14:03 | 53.08120 | -27.37964 | 35990 ft | 457 kts | 266° |
| 2026-05-06 14:03 | 53.07897 | -27.48849 | 35982 ft | 457 kts | 266° |
| 2026-05-06 14:04 | 53.07666 | -27.59689 | 35981 ft | 458 kts | 267° |
| 2026-05-06 14:04 | 53.07423 | -27.70584 | 35979 ft | 457 kts | 266° |
| 2026-05-06 14:05 | 53.07174 | -27.81371 | 35973 ft | 457 kts | 266° |
| 2026-05-06 14:05 | 53.06911 | -27.92278 | 35967 ft | 457 kts | 266° |
| 2026-05-06 14:06 | 53.06641 | -28.03120 | 35955 ft | 457 kts | 266° |
| 2026-05-06 14:06 | 53.06361 | -28.13897 | 35956 ft | 457 kts | 266° |
| 2026-05-06 14:07 | 53.06071 | -28.24742 | 35958 ft | 457 kts | 266° |
| 2026-05-06 14:07 | 53.05769 | -28.35614 | 35954 ft | 458 kts | 266° |
| 2026-05-06 14:08 | 53.05458 | -28.46508 | 35945 ft | 458 kts | 266° |
| 2026-05-06 14:08 | 53.05139 | -28.57313 | 35949 ft | 457 kts | 266° |
| 2026-05-06 14:09 | 53.04808 | -28.68147 | 35946 ft | 457 kts | 265° |
| 2026-05-06 14:09 | 53.04469 | -28.78956 | 35946 ft | 457 kts | 265° |
| 2026-05-06 14:10 | 53.04118 | -28.89841 | 35943 ft | 457 kts | 265° |
| 2026-05-06 14:10 | 53.03759 | -29.00666 | 35945 ft | 459 kts | 266° |
| 2026-05-06 14:11 | 53.03388 | -29.11542 | 35943 ft | 458 kts | 266° |
| 2026-05-06 14:11 | 53.03007 | -29.22409 | 35943 ft | 457 kts | 266° |
| 2026-05-06 14:12 | 53.02620 | -29.33196 | 35931 ft | 457 kts | 266° |
| 2026-05-06 14:12 | 53.02223 | -29.43960 | 35925 ft | 458 kts | 265° |
| 2026-05-06 14:13 | 53.01813 | -29.54814 | 35932 ft | 457 kts | 266° |
| 2026-05-06 14:13 | 53.01400 | -29.65495 | 35933 ft | 458 kts | 265° |
| 2026-05-06 14:14 | 53.00969 | -29.76362 | 35935 ft | 457 kts | 265° |
| 2026-05-06 14:14 | 53.00532 | -29.87145 | 35933 ft | 458 kts | 265° |
| 2026-05-06 14:15 | 53.00081 | -29.98038 | 35948 ft | 458 kts | 265° |
| 2026-05-06 14:15 | 52.99921 | -30.08823 | 35943 ft | 458 kts | 268° |
| 2026-05-06 14:16 | 52.99833 | -30.19436 | 35956 ft | 457 kts | 268° |
| 2026-05-06 14:16 | 52.99730 | -30.30264 | 35963 ft | 458 kts | 268° |
| 2026-05-06 14:17 | 52.99615 | -30.41073 | 35973 ft | 458 kts | 269° |
| 2026-05-06 14:17 | 52.99492 | -30.51791 | 35964 ft | 457 kts | 269° |
| 2026-05-06 14:18 | 52.99358 | -30.62545 | 35974 ft | 457 kts | 269° |
| 2026-05-06 14:18 | 52.99215 | -30.73311 | 35976 ft | 458 kts | 268° |
| 2026-05-06 14:19 | 52.99062 | -30.84049 | 35983 ft | 457 kts | 268° |
| 2026-05-06 14:19 | 52.98898 | -30.94853 | 35974 ft | 458 kts | 268° |
| 2026-05-06 14:20 | 52.98725 | -31.05591 | 35985 ft | 457 kts | 268° |
| 2026-05-06 14:20 | 52.98544 | -31.16332 | 35985 ft | 456 kts | 268° |
| 2026-05-06 14:21 | 52.98353 | -31.27027 | 35993 ft | 457 kts | 268° |
| 2026-05-06 14:21 | 52.98152 | -31.37714 | 35994 ft | 456 kts | 268° |
| 2026-05-06 14:22 | 52.97942 | -31.48416 | 36002 ft | 456 kts | 268° |
| 2026-05-06 14:22 | 52.97723 | -31.59068 | 36004 ft | 457 kts | 268° |
| 2026-05-06 14:23 | 52.97496 | -31.69684 | 36016 ft | 456 kts | 267° |
| 2026-05-06 14:23 | 52.97257 | -31.80400 | 36010 ft | 456 kts | 268° |
| 2026-05-06 14:24 | 52.97010 | -31.91009 | 36012 ft | 456 kts | 268° |
| 2026-05-06 14:24 | 52.96753 | -32.01649 | 36019 ft | 455 kts | 268° |
| 2026-05-06 14:25 | 52.96485 | -32.12357 | 36020 ft | 456 kts | 268° |
| 2026-05-06 14:25 | 52.96209 | -32.22991 | 36022 ft | 456 kts | 268° |
| 2026-05-06 14:26 | 52.95923 | -32.33657 | 36021 ft | 456 kts | 268° |
| 2026-05-06 14:26 | 52.95627 | -32.44341 | 36028 ft | 456 kts | 268° |
| 2026-05-06 14:27 | 52.95323 | -32.54966 | 36024 ft | 456 kts | 268° |
| 2026-05-06 14:27 | 52.95010 | -32.65551 | 36022 ft | 456 kts | 267° |
| 2026-05-06 14:28 | 52.94690 | -32.76093 | 36025 ft | 457 kts | 267° |
| 2026-05-06 14:28 | 52.94360 | -32.86649 | 36029 ft | 458 kts | 267° |
| 2026-05-06 14:29 | 52.94022 | -32.97142 | 36024 ft | 457 kts | 267° |
| 2026-05-06 14:29 | 52.93676 | -33.07595 | 36029 ft | 457 kts | 267° |
| 2026-05-06 14:30 | 52.93320 | -33.18087 | 36031 ft | 457 kts | 267° |
| 2026-05-06 14:30 | 52.92956 | -33.28528 | 36033 ft | 456 kts | 267° |
| 2026-05-06 14:31 | 52.92582 | -33.38996 | 36036 ft | 456 kts | 268° |
| 2026-05-06 14:31 | 52.92199 | -33.49467 | 36032 ft | 456 kts | 268° |
| 2026-05-06 14:32 | 52.91808 | -33.59891 | 36035 ft | 456 kts | 267° |
| 2026-05-06 14:32 | 52.91406 | -33.70379 | 36043 ft | 457 kts | 266° |
| 2026-05-06 14:33 | 52.90993 | -33.80891 | 36043 ft | 456 kts | 267° |
| 2026-05-06 14:33 | 52.90633 | -33.89881 | 36046 ft | 456 kts | 267° |
| 2026-05-06 14:34 | 52.90203 | -34.00382 | 36046 ft | 456 kts | 267° |
| 2026-05-06 14:34 | 52.89768 | -34.10790 | 36046 ft | 456 kts | 267° |
| 2026-05-06 14:35 | 52.89321 | -34.21244 | 36044 ft | 456 kts | 267° |
| 2026-05-06 14:35 | 52.88864 | -34.31734 | 36046 ft | 456 kts | 267° |
| 2026-05-06 14:36 | 52.88403 | -34.42113 | 36046 ft | 456 kts | 267° |
| 2026-05-06 14:36 | 52.87931 | -34.52516 | 36045 ft | 455 kts | 267° |
| 2026-05-06 14:37 | 52.87449 | -34.62957 | 36046 ft | 455 kts | 267° |
| 2026-05-06 14:37 | 52.86958 | -34.73381 | 36046 ft | 456 kts | 266° |
| 2026-05-06 14:38 | 52.86459 | -34.83775 | 36048 ft | 455 kts | 266° |
| 2026-05-06 14:38 | 52.85983 | -34.93517 | 36047 ft | 455 kts | 266° |
| 2026-05-06 14:39 | 52.85468 | -35.03881 | 36051 ft | 456 kts | 266° |
| 2026-05-06 14:39 | 52.84942 | -35.14276 | 36055 ft | 456 kts | 267° |
| 2026-05-06 14:40 | 52.84406 | -35.24678 | 36054 ft | 455 kts | 267° |
| 2026-05-06 14:40 | 52.83863 | -35.35051 | 36056 ft | 455 kts | 266° |
| 2026-05-06 14:41 | 52.83308 | -35.45464 | 36054 ft | 455 kts | 266° |
| 2026-05-06 14:41 | 52.82748 | -35.55819 | 36058 ft | 455 kts | 267° |
| 2026-05-06 14:42 | 52.82175 | -35.66225 | 36061 ft | 455 kts | 266° |
| 2026-05-06 14:42 | 52.81592 | -35.76650 | 36058 ft | 455 kts | 266° |
| 2026-05-06 14:43 | 52.81004 | -35.87006 | 36057 ft | 455 kts | 266° |
| 2026-05-06 14:43 | 52.80419 | -35.97143 | 36066 ft | 455 kts | 266° |
| 2026-05-06 14:44 | 52.79838 | -36.07072 | 36070 ft | 454 kts | 266° |
| 2026-05-06 14:45 | 52.78913 | -36.22575 | 36067 ft | 453 kts | 266° |
| 2026-05-06 14:45 | 52.78285 | -36.32921 | 36066 ft | 453 kts | 266° |
| 2026-05-06 14:46 | 52.77648 | -36.43254 | 36069 ft | 454 kts | 266° |
| 2026-05-06 14:46 | 52.77003 | -36.53578 | 36066 ft | 454 kts | 267° |
| 2026-05-06 14:47 | 52.76349 | -36.63895 | 36068 ft | 454 kts | 266° |
| 2026-05-06 14:47 | 52.75685 | -36.74220 | 36070 ft | 453 kts | 266° |
| 2026-05-06 14:48 | 52.75013 | -36.84526 | 36069 ft | 452 kts | 266° |
| 2026-05-06 14:48 | 52.74336 | -36.94776 | 36068 ft | 452 kts | 266° |
| 2026-05-06 14:49 | 52.73647 | -37.05076 | 36068 ft | 452 kts | 266° |
| 2026-05-06 14:49 | 52.72951 | -37.15337 | 36071 ft | 452 kts | 266° |
| 2026-05-06 14:50 | 52.72248 | -37.25571 | 36071 ft | 453 kts | 266° |
| 2026-05-06 14:50 | 52.71529 | -37.35908 | 36073 ft | 453 kts | 266° |
| 2026-05-06 14:51 | 52.70808 | -37.46130 | 36078 ft | 453 kts | 266° |
| 2026-05-06 14:51 | 52.70071 | -37.56440 | 36078 ft | 451 kts | 266° |
| 2026-05-06 14:52 | 52.69334 | -37.66651 | 36084 ft | 451 kts | 266° |
| 2026-05-06 14:52 | 52.68588 | -37.76855 | 36087 ft | 451 kts | 266° |
| 2026-05-06 14:53 | 52.67832 | -37.87058 | 36087 ft | 451 kts | 266° |
| 2026-05-06 14:53 | 52.67063 | -37.97324 | 36088 ft | 451 kts | 266° |
| 2026-05-06 14:54 | 52.66299 | -38.07415 | 36095 ft | 452 kts | 266° |
| 2026-05-06 14:54 | 52.65514 | -38.17641 | 36093 ft | 451 kts | 266° |
| 2026-05-06 14:55 | 52.64726 | -38.27800 | 36096 ft | 450 kts | 266° |
| 2026-05-06 14:55 | 52.63946 | -38.37734 | 36098 ft | 448 kts | 266° |
| 2026-05-06 14:56 | 52.63140 | -38.47901 | 36092 ft | 448 kts | 266° |
| 2026-05-06 14:56 | 52.62323 | -38.58086 | 36097 ft | 449 kts | 266° |
| 2026-05-06 14:57 | 52.61507 | -38.68161 | 36096 ft | 447 kts | 266° |
| 2026-05-06 14:57 | 52.60677 | -38.78293 | 36102 ft | 448 kts | 266° |